sensor_id;sensor_type;location;lat;lon;timestamp;temperature;humidity
49579;DHT22;35483;50.828;3.228;2023-06-19T00:02:07;21.70;74.40
49579;DHT22;35483;50.828;3.228;2023-06-19T00:04:33;21.70;74.50
49579;DHT22;35483;50.828;3.228;2023-06-19T00:07:00;21.60;75.10
49579;DHT22;35483;50.828;3.228;2023-06-19T00:09:26;21.60;75.60
49579;DHT22;35483;50.828;3.228;2023-06-19T00:11:52;21.60;74.60
49579;DHT22;35483;50.828;3.228;2023-06-19T00:14:18;21.60;74.50
49579;DHT22;35483;50.828;3.228;2023-06-19T00:16:44;21.60;74.50
49579;DHT22;35483;50.828;3.228;2023-06-19T00:19:10;21.60;74.50
49579;DHT22;35483;50.828;3.228;2023-06-19T00:21:37;21.60;74.80
49579;DHT22;35483;50.828;3.228;2023-06-19T00:24:04;21.50;74.60
49579;DHT22;35483;50.828;3.228;2023-06-19T00:26:30;21.50;74.90
49579;DHT22;35483;50.828;3.228;2023-06-19T00:28:56;21.50;74.30
49579;DHT22;35483;50.828;3.228;2023-06-19T00:31:22;21.60;74.70
49579;DHT22;35483;50.828;3.228;2023-06-19T00:33:48;21.50;74.90
49579;DHT22;35483;50.828;3.228;2023-06-19T00:36:15;21.50;74.50
49579;DHT22;35483;50.828;3.228;2023-06-19T00:38:42;21.50;75.00
49579;DHT22;35483;50.828;3.228;2023-06-19T00:41:08;21.50;74.90
49579;DHT22;35483;50.828;3.228;2023-06-19T00:43:34;21.50;74.70
49579;DHT22;35483;50.828;3.228;2023-06-19T00:46:01;21.50;74.70
49579;DHT22;35483;50.828;3.228;2023-06-19T00:48:28;21.50;74.60
49579;DHT22;35483;50.828;3.228;2023-06-19T00:50:55;21.50;74.70
49579;DHT22;35483;50.828;3.228;2023-06-19T00:53:22;21.50;74.90
49579;DHT22;35483;50.828;3.228;2023-06-19T00:55:48;21.50;75.40
49579;DHT22;35483;50.828;3.228;2023-06-19T00:58:15;21.40;74.60
49579;DHT22;35483;50.828;3.228;2023-06-19T01:00:41;21.40;74.50
49579;DHT22;35483;50.828;3.228;2023-06-19T01:03:06;21.30;74.40
49579;DHT22;35483;50.828;3.228;2023-06-19T01:05:32;21.30;75.20
49579;DHT22;35483;50.828;3.228;2023-06-19T01:10:54;21.20;76.70
49579;DHT22;35483;50.828;3.228;2023-06-19T01:16:06;21.20;78.90
49579;DHT22;35483;50.828;3.228;2023-06-19T01:18:33;21.20;74.90
49579;DHT22;35483;50.828;3.228;2023-06-19T01:21:16;21.20;74.70
49579;DHT22;35483;50.828;3.228;2023-06-19T01:23:42;21.20;75.30
49579;DHT22;35483;50.828;3.228;2023-06-19T01:26:09;21.10;74.70
49579;DHT22;35483;50.828;3.228;2023-06-19T01:28:36;21.10;74.90
49579;DHT22;35483;50.828;3.228;2023-06-19T01:31:18;21.10;74.80
49579;DHT22;35483;50.828;3.228;2023-06-19T01:33:47;21.10;79.10
49579;DHT22;35483;50.828;3.228;2023-06-19T01:36:17;21.00;75.00
49579;DHT22;35483;50.828;3.228;2023-06-19T01:38:44;21.00;75.00
49579;DHT22;35483;50.828;3.228;2023-06-19T01:41:11;21.00;75.00
49579;DHT22;35483;50.828;3.228;2023-06-19T01:43:37;21.00;74.90
49579;DHT22;35483;50.828;3.228;2023-06-19T01:46:04;21.00;75.00
49579;DHT22;35483;50.828;3.228;2023-06-19T01:48:30;20.90;74.70
49579;DHT22;35483;50.828;3.228;2023-06-19T01:50:56;20.90;75.10
49579;DHT22;35483;50.828;3.228;2023-06-19T01:53:22;20.90;74.90
49579;DHT22;35483;50.828;3.228;2023-06-19T01:55:47;20.80;75.00
49579;DHT22;35483;50.828;3.228;2023-06-19T01:58:13;20.80;75.20
49579;DHT22;35483;50.828;3.228;2023-06-19T02:00:39;20.70;75.20
49579;DHT22;35483;50.828;3.228;2023-06-19T02:03:05;20.70;74.80
49579;DHT22;35483;50.828;3.228;2023-06-19T02:05:31;20.70;75.10
49579;DHT22;35483;50.828;3.228;2023-06-19T02:07:57;20.70;75.10
49579;DHT22;35483;50.828;3.228;2023-06-19T02:10:23;20.70;74.80
49579;DHT22;35483;50.828;3.228;2023-06-19T02:12:49;20.60;74.90
49579;DHT22;35483;50.828;3.228;2023-06-19T02:15:14;20.60;75.00
49579;DHT22;35483;50.828;3.228;2023-06-19T02:17:40;20.50;75.00
49579;DHT22;35483;50.828;3.228;2023-06-19T02:20:09;20.30;75.10
49579;DHT22;35483;50.828;3.228;2023-06-19T02:22:38;20.30;75.20
49579;DHT22;35483;50.828;3.228;2023-06-19T02:25:05;20.20;75.60
49579;DHT22;35483;50.828;3.228;2023-06-19T02:27:31;20.10;75.50
49579;DHT22;35483;50.828;3.228;2023-06-19T02:29:56;20.00;75.50
49579;DHT22;35483;50.828;3.228;2023-06-19T02:32:22;19.90;75.40
49579;DHT22;35483;50.828;3.228;2023-06-19T02:34:48;19.90;75.50
49579;DHT22;35483;50.828;3.228;2023-06-19T02:37:14;19.80;75.30
49579;DHT22;35483;50.828;3.228;2023-06-19T02:39:39;19.80;75.20
49579;DHT22;35483;50.828;3.228;2023-06-19T02:42:06;19.80;75.20
49579;DHT22;35483;50.828;3.228;2023-06-19T02:44:32;19.70;75.50
49579;DHT22;35483;50.828;3.228;2023-06-19T02:46:59;19.70;75.60
49579;DHT22;35483;50.828;3.228;2023-06-19T02:49:25;19.60;75.80
49579;DHT22;35483;50.828;3.228;2023-06-19T02:51:50;19.60;75.60
49579;DHT22;35483;50.828;3.228;2023-06-19T02:54:16;19.60;75.70
49579;DHT22;35483;50.828;3.228;2023-06-19T02:56:42;19.60;75.60
49579;DHT22;35483;50.828;3.228;2023-06-19T02:59:07;19.50;76.00
49579;DHT22;35483;50.828;3.228;2023-06-19T03:01:33;19.50;76.10
49579;DHT22;35483;50.828;3.228;2023-06-19T03:03:59;19.50;76.00
49579;DHT22;35483;50.828;3.228;2023-06-19T03:06:25;19.50;75.70
49579;DHT22;35483;50.828;3.228;2023-06-19T03:08:51;19.60;75.70
49579;DHT22;35483;50.828;3.228;2023-06-19T03:11:17;19.60;75.50
49579;DHT22;35483;50.828;3.228;2023-06-19T03:13:49;19.60;75.30
49579;DHT22;35483;50.828;3.228;2023-06-19T03:16:15;19.50;75.40
49579;DHT22;35483;50.828;3.228;2023-06-19T03:18:42;19.50;75.50
49579;DHT22;35483;50.828;3.228;2023-06-19T03:21:13;19.40;75.60
49579;DHT22;35483;50.828;3.228;2023-06-19T03:23:39;19.30;75.50
49579;DHT22;35483;50.828;3.228;2023-06-19T03:26:07;19.20;75.50
49579;DHT22;35483;50.828;3.228;2023-06-19T03:28:33;19.10;75.60
49579;DHT22;35483;50.828;3.228;2023-06-19T03:30:59;19.00;75.80
49579;DHT22;35483;50.828;3.228;2023-06-19T03:33:24;19.00;75.50
49579;DHT22;35483;50.828;3.228;2023-06-19T03:35:50;18.90;75.70
49579;DHT22;35483;50.828;3.228;2023-06-19T03:38:16;18.90;76.00
49579;DHT22;35483;50.828;3.228;2023-06-19T03:40:42;18.90;76.10
49579;DHT22;35483;50.828;3.228;2023-06-19T03:43:07;18.90;76.30
49579;DHT22;35483;50.828;3.228;2023-06-19T03:45:33;18.90;75.80
49579;DHT22;35483;50.828;3.228;2023-06-19T03:47:59;19.00;75.80
49579;DHT22;35483;50.828;3.228;2023-06-19T03:50:25;19.10;75.90
49579;DHT22;35483;50.828;3.228;2023-06-19T03:52:50;19.10;75.60
49579;DHT22;35483;50.828;3.228;2023-06-19T03:55:17;19.20;75.70
49579;DHT22;35483;50.828;3.228;2023-06-19T03:57:42;19.30;75.60
49579;DHT22;35483;50.828;3.228;2023-06-19T04:00:08;19.30;75.90
49579;DHT22;35483;50.828;3.228;2023-06-19T04:02:36;19.30;75.50
49579;DHT22;35483;50.828;3.228;2023-06-19T04:05:02;19.30;76.00
49579;DHT22;35483;50.828;3.228;2023-06-19T04:07:28;19.30;75.60
49579;DHT22;35483;50.828;3.228;2023-06-19T04:09:56;19.40;75.70
49579;DHT22;35483;50.828;3.228;2023-06-19T04:12:22;19.40;76.10
49579;DHT22;35483;50.828;3.228;2023-06-19T04:14:47;19.40;75.60
49579;DHT22;35483;50.828;3.228;2023-06-19T04:17:14;19.40;75.50
49579;DHT22;35483;50.828;3.228;2023-06-19T04:19:41;19.50;75.60
49579;DHT22;35483;50.828;3.228;2023-06-19T04:22:07;19.50;75.30
49579;DHT22;35483;50.828;3.228;2023-06-19T04:24:34;19.50;75.60
49579;DHT22;35483;50.828;3.228;2023-06-19T04:27:00;19.50;75.30
49579;DHT22;35483;50.828;3.228;2023-06-19T04:29:26;19.50;75.70
49579;DHT22;35483;50.828;3.228;2023-06-19T04:31:51;19.50;75.70
49579;DHT22;35483;50.828;3.228;2023-06-19T04:34:18;19.60;75.40
49579;DHT22;35483;50.828;3.228;2023-06-19T04:36:49;19.60;75.30
49579;DHT22;35483;50.828;3.228;2023-06-19T04:39:15;19.70;75.60
49579;DHT22;35483;50.828;3.228;2023-06-19T04:41:43;19.70;75.20
49579;DHT22;35483;50.828;3.228;2023-06-19T04:44:10;19.70;75.60
49579;DHT22;35483;50.828;3.228;2023-06-19T04:46:38;19.70;75.40
49579;DHT22;35483;50.828;3.228;2023-06-19T04:49:05;19.80;75.40
49579;DHT22;35483;50.828;3.228;2023-06-19T04:51:31;19.80;75.10
49579;DHT22;35483;50.828;3.228;2023-06-19T04:54:00;19.90;74.90
49579;DHT22;35483;50.828;3.228;2023-06-19T04:56:26;19.90;75.10
49579;DHT22;35483;50.828;3.228;2023-06-19T04:58:52;20.00;75.10
49579;DHT22;35483;50.828;3.228;2023-06-19T05:01:20;20.00;74.90
49579;DHT22;35483;50.828;3.228;2023-06-19T05:03:52;20.00;74.90
49579;DHT22;35483;50.828;3.228;2023-06-19T05:06:18;19.90;75.00
49579;DHT22;35483;50.828;3.228;2023-06-19T05:08:45;19.90;75.00
49579;DHT22;35483;50.828;3.228;2023-06-19T05:11:11;20.00;74.80
49579;DHT22;35483;50.828;3.228;2023-06-19T05:13:36;20.00;74.90
49579;DHT22;35483;50.828;3.228;2023-06-19T05:16:02;20.00;75.00
49579;DHT22;35483;50.828;3.228;2023-06-19T05:18:28;20.10;75.00
49579;DHT22;35483;50.828;3.228;2023-06-19T05:20:53;20.20;74.80
49579;DHT22;35483;50.828;3.228;2023-06-19T05:23:19;20.40;74.80
49579;DHT22;35483;50.828;3.228;2023-06-19T05:25:45;20.50;74.60
49579;DHT22;35483;50.828;3.228;2023-06-19T05:28:10;20.60;74.40
49579;DHT22;35483;50.828;3.228;2023-06-19T05:30:36;20.60;74.40
49579;DHT22;35483;50.828;3.228;2023-06-19T05:33:02;20.70;74.30
49579;DHT22;35483;50.828;3.228;2023-06-19T05:35:28;20.80;74.20
49579;DHT22;35483;50.828;3.228;2023-06-19T05:37:55;20.90;74.10
49579;DHT22;35483;50.828;3.228;2023-06-19T05:40:21;20.90;74.20
49579;DHT22;35483;50.828;3.228;2023-06-19T05:42:47;20.90;74.40
49579;DHT22;35483;50.828;3.228;2023-06-19T05:45:13;20.90;74.20
49579;DHT22;35483;50.828;3.228;2023-06-19T05:47:39;21.20;74.00
49579;DHT22;35483;50.828;3.228;2023-06-19T05:50:05;21.30;73.60
49579;DHT22;35483;50.828;3.228;2023-06-19T05:52:31;21.30;73.70
49579;DHT22;35483;50.828;3.228;2023-06-19T05:54:56;22.30;71.90
49579;DHT22;35483;50.828;3.228;2023-06-19T05:57:23;22.50;71.70
49579;DHT22;35483;50.828;3.228;2023-06-19T05:59:49;22.60;71.40
49579;DHT22;35483;50.828;3.228;2023-06-19T06:02:19;23.30;70.60
49579;DHT22;35483;50.828;3.228;2023-06-19T06:04:45;23.80;70.10
49579;DHT22;35483;50.828;3.228;2023-06-19T06:07:11;23.60;70.30
49579;DHT22;35483;50.828;3.228;2023-06-19T06:09:37;24.70;68.70
49579;DHT22;35483;50.828;3.228;2023-06-19T06:12:04;24.60;68.60
49579;DHT22;35483;50.828;3.228;2023-06-19T06:14:30;24.00;70.00
49579;DHT22;35483;50.828;3.228;2023-06-19T06:16:55;24.10;70.00
49579;DHT22;35483;50.828;3.228;2023-06-19T06:19:21;23.90;70.10
49579;DHT22;35483;50.828;3.228;2023-06-19T06:21:49;23.40;70.90
49579;DHT22;35483;50.828;3.228;2023-06-19T06:24:14;23.10;71.70
49579;DHT22;35483;50.828;3.228;2023-06-19T06:26:40;22.60;72.40
49579;DHT22;35483;50.828;3.228;2023-06-19T06:29:07;22.40;72.70
49579;DHT22;35483;50.828;3.228;2023-06-19T06:31:34;22.40;72.90
49579;DHT22;35483;50.828;3.228;2023-06-19T06:33:59;22.30;73.00
49579;DHT22;35483;50.828;3.228;2023-06-19T06:36:25;22.30;72.90
49579;DHT22;35483;50.828;3.228;2023-06-19T06:38:51;22.30;73.10
49579;DHT22;35483;50.828;3.228;2023-06-19T06:41:17;22.40;72.90
49579;DHT22;35483;50.828;3.228;2023-06-19T06:43:42;22.40;72.90
49579;DHT22;35483;50.828;3.228;2023-06-19T06:46:09;22.40;73.10
49579;DHT22;35483;50.828;3.228;2023-06-19T06:48:36;22.50;73.00
49579;DHT22;35483;50.828;3.228;2023-06-19T06:51:02;22.60;72.90
49579;DHT22;35483;50.828;3.228;2023-06-19T06:53:28;22.70;72.60
49579;DHT22;35483;50.828;3.228;2023-06-19T06:55:55;22.80;72.60
49579;DHT22;35483;50.828;3.228;2023-06-19T06:58:20;22.90;72.50
49579;DHT22;35483;50.828;3.228;2023-06-19T07:00:46;22.90;72.20
49579;DHT22;35483;50.828;3.228;2023-06-19T07:03:13;23.00;72.20
49579;DHT22;35483;50.828;3.228;2023-06-19T07:05:38;23.10;72.30
49579;DHT22;35483;50.828;3.228;2023-06-19T07:08:04;23.10;72.30
49579;DHT22;35483;50.828;3.228;2023-06-19T07:10:30;23.20;72.40
49579;DHT22;35483;50.828;3.228;2023-06-19T07:12:56;23.20;72.40
49579;DHT22;35483;50.828;3.228;2023-06-19T07:15:22;23.10;72.30
49579;DHT22;35483;50.828;3.228;2023-06-19T07:17:48;23.10;72.50
49579;DHT22;35483;50.828;3.228;2023-06-19T07:20:14;23.00;72.70
49579;DHT22;35483;50.828;3.228;2023-06-19T07:22:41;23.00;72.70
49579;DHT22;35483;50.828;3.228;2023-06-19T07:25:07;23.00;72.70
49579;DHT22;35483;50.828;3.228;2023-06-19T07:27:33;22.90;72.70
49579;DHT22;35483;50.828;3.228;2023-06-19T07:29:59;22.90;72.80
49579;DHT22;35483;50.828;3.228;2023-06-19T07:32:25;22.90;72.80
49579;DHT22;35483;50.828;3.228;2023-06-19T07:34:50;22.90;72.80
49579;DHT22;35483;50.828;3.228;2023-06-19T07:37:16;22.90;73.00
49579;DHT22;35483;50.828;3.228;2023-06-19T07:39:47;22.90;72.80
49579;DHT22;35483;50.828;3.228;2023-06-19T07:42:16;22.90;73.00
49579;DHT22;35483;50.828;3.228;2023-06-19T07:44:42;22.90;73.20
49579;DHT22;35483;50.828;3.228;2023-06-19T07:47:09;22.90;72.90
49579;DHT22;35483;50.828;3.228;2023-06-19T07:49:35;22.70;73.00
49579;DHT22;35483;50.828;3.228;2023-06-19T07:52:02;22.60;73.10
49579;DHT22;35483;50.828;3.228;2023-06-19T07:54:27;22.50;73.30
49579;DHT22;35483;50.828;3.228;2023-06-19T07:56:53;22.50;73.30
49579;DHT22;35483;50.828;3.228;2023-06-19T07:59:19;22.50;73.30
49579;DHT22;35483;50.828;3.228;2023-06-19T08:01:45;22.40;73.20
49579;DHT22;35483;50.828;3.228;2023-06-19T08:04:11;22.50;73.90
49579;DHT22;35483;50.828;3.228;2023-06-19T08:06:36;22.60;73.20
49579;DHT22;35483;50.828;3.228;2023-06-19T08:09:03;22.70;73.00
49579;DHT22;35483;50.828;3.228;2023-06-19T08:11:30;22.70;73.60
49579;DHT22;35483;50.828;3.228;2023-06-19T08:13:55;22.80;73.10
49579;DHT22;35483;50.828;3.228;2023-06-19T08:16:21;22.80;72.90
49579;DHT22;35483;50.828;3.228;2023-06-19T08:18:47;22.80;72.90
49579;DHT22;35483;50.828;3.228;2023-06-19T08:21:13;22.90;72.90
49579;DHT22;35483;50.828;3.228;2023-06-19T08:23:39;22.90;72.90
49579;DHT22;35483;50.828;3.228;2023-06-19T08:26:05;23.00;72.90
49579;DHT22;35483;50.828;3.228;2023-06-19T08:28:33;23.10;72.80
49579;DHT22;35483;50.828;3.228;2023-06-19T08:31:00;23.30;72.70
49579;DHT22;35483;50.828;3.228;2023-06-19T08:33:25;23.40;72.50
49579;DHT22;35483;50.828;3.228;2023-06-19T08:35:51;23.40;72.60
49579;DHT22;35483;50.828;3.228;2023-06-19T08:38:18;23.40;72.50
49579;DHT22;35483;50.828;3.228;2023-06-19T08:40:45;23.50;72.50
49579;DHT22;35483;50.828;3.228;2023-06-19T08:43:11;23.60;72.60
49579;DHT22;35483;50.828;3.228;2023-06-19T08:45:36;23.70;72.60
49579;DHT22;35483;50.828;3.228;2023-06-19T08:48:03;23.90;72.70
49579;DHT22;35483;50.828;3.228;2023-06-19T08:50:32;24.00;72.50
49579;DHT22;35483;50.828;3.228;2023-06-19T08:52:58;24.10;72.40
49579;DHT22;35483;50.828;3.228;2023-06-19T08:55:24;24.10;72.40
49579;DHT22;35483;50.828;3.228;2023-06-19T08:57:50;24.20;72.30
49579;DHT22;35483;50.828;3.228;2023-06-19T09:00:27;24.30;72.20
49579;DHT22;35483;50.828;3.228;2023-06-19T09:03:00;24.40;72.10
49579;DHT22;35483;50.828;3.228;2023-06-19T09:05:27;24.40;72.20
49579;DHT22;35483;50.828;3.228;2023-06-19T09:07:57;24.60;72.00
49579;DHT22;35483;50.828;3.228;2023-06-19T09:10:24;24.70;72.10
49579;DHT22;35483;50.828;3.228;2023-06-19T09:12:57;24.60;72.10
49579;DHT22;35483;50.828;3.228;2023-06-19T09:15:26;24.60;72.00
49579;DHT22;35483;50.828;3.228;2023-06-19T09:18:06;24.60;72.10
49579;DHT22;35483;50.828;3.228;2023-06-19T09:20:37;24.60;72.20
49579;DHT22;35483;50.828;3.228;2023-06-19T09:23:05;24.50;72.00
49579;DHT22;35483;50.828;3.228;2023-06-19T09:25:30;24.60;72.00
49579;DHT22;35483;50.828;3.228;2023-06-19T09:27:57;24.60;72.00
49579;DHT22;35483;50.828;3.228;2023-06-19T09:30:23;24.70;71.90
49579;DHT22;35483;50.828;3.228;2023-06-19T09:32:49;24.70;71.90
49579;DHT22;35483;50.828;3.228;2023-06-19T09:35:15;24.70;72.00
49579;DHT22;35483;50.828;3.228;2023-06-19T09:37:42;24.80;72.00
49579;DHT22;35483;50.828;3.228;2023-06-19T09:40:09;25.00;72.40
49579;DHT22;35483;50.828;3.228;2023-06-19T09:42:42;25.10;71.80
49579;DHT22;35483;50.828;3.228;2023-06-19T09:45:12;25.20;71.50
49579;DHT22;35483;50.828;3.228;2023-06-19T09:47:47;25.10;71.60
49579;DHT22;35483;50.828;3.228;2023-06-19T09:50:14;25.00;71.60
49579;DHT22;35483;50.828;3.228;2023-06-19T09:52:41;24.90;71.90
49579;DHT22;35483;50.828;3.228;2023-06-19T09:55:08;24.70;72.00
49579;DHT22;35483;50.828;3.228;2023-06-19T09:57:36;24.60;72.30
49579;DHT22;35483;50.828;3.228;2023-06-19T10:00:05;24.50;72.40
49579;DHT22;35483;50.828;3.228;2023-06-19T10:02:42;24.40;72.70
49579;DHT22;35483;50.828;3.228;2023-06-19T10:05:09;24.30;72.70
49579;DHT22;35483;50.828;3.228;2023-06-19T10:07:38;24.30;72.80
49579;DHT22;35483;50.828;3.228;2023-06-19T10:10:06;24.40;72.80
49579;DHT22;35483;50.828;3.228;2023-06-19T10:12:40;24.40;72.70
49579;DHT22;35483;50.828;3.228;2023-06-19T10:15:16;24.30;72.60
49579;DHT22;35483;50.828;3.228;2023-06-19T10:17:53;24.30;72.80
49579;DHT22;35483;50.828;3.228;2023-06-19T10:23:00;24.20;73.50
49579;DHT22;35483;50.828;3.228;2023-06-19T10:25:29;24.20;72.70
49579;DHT22;35483;50.828;3.228;2023-06-19T10:27:57;24.30;72.60
49579;DHT22;35483;50.828;3.228;2023-06-19T10:30:23;24.30;72.60
49579;DHT22;35483;50.828;3.228;2023-06-19T10:32:49;24.30;72.50
49579;DHT22;35483;50.828;3.228;2023-06-19T10:35:17;24.30;72.60
49579;DHT22;35483;50.828;3.228;2023-06-19T10:37:43;24.40;72.50
49579;DHT22;35483;50.828;3.228;2023-06-19T10:40:10;24.40;72.40
49579;DHT22;35483;50.828;3.228;2023-06-19T10:42:38;24.40;72.40
49579;DHT22;35483;50.828;3.228;2023-06-19T10:45:07;24.50;72.40
49579;DHT22;35483;50.828;3.228;2023-06-19T10:47:35;24.60;72.40
49579;DHT22;35483;50.828;3.228;2023-06-19T10:50:01;24.70;72.40
49579;DHT22;35483;50.828;3.228;2023-06-19T10:52:31;24.80;72.20
49579;DHT22;35483;50.828;3.228;2023-06-19T10:54:57;24.90;72.20
49579;DHT22;35483;50.828;3.228;2023-06-19T10:57:29;25.00;72.20
49579;DHT22;35483;50.828;3.228;2023-06-19T10:59:55;25.20;71.20
49579;DHT22;35483;50.828;3.228;2023-06-19T11:02:22;25.40;72.00
49579;DHT22;35483;50.828;3.228;2023-06-19T11:04:48;25.40;71.60
49579;DHT22;35483;50.828;3.228;2023-06-19T11:07:14;25.40;72.00
49579;DHT22;35483;50.828;3.228;2023-06-19T11:09:40;25.40;72.10
49579;DHT22;35483;50.828;3.228;2023-06-19T11:12:06;25.40;72.10
49579;DHT22;35483;50.828;3.228;2023-06-19T11:14:33;25.50;72.10
49579;DHT22;35483;50.828;3.228;2023-06-19T11:17:05;25.50;71.80
49579;DHT22;35483;50.828;3.228;2023-06-19T11:19:32;25.60;71.60
49579;DHT22;35483;50.828;3.228;2023-06-19T11:22:02;25.70;71.70
49579;DHT22;35483;50.828;3.228;2023-06-19T11:24:29;25.70;71.60
49579;DHT22;35483;50.828;3.228;2023-06-19T11:26:56;25.70;71.60
49579;DHT22;35483;50.828;3.228;2023-06-19T11:29:30;25.60;71.60
49579;DHT22;35483;50.828;3.228;2023-06-19T11:32:12;25.60;71.50
49579;DHT22;35483;50.828;3.228;2023-06-19T11:34:38;25.50;71.10
49579;DHT22;35483;50.828;3.228;2023-06-19T11:37:14;25.50;72.00
49579;DHT22;35483;50.828;3.228;2023-06-19T11:39:40;25.70;70.90
49579;DHT22;35483;50.828;3.228;2023-06-19T11:42:07;25.80;71.80
49579;DHT22;35483;50.828;3.228;2023-06-19T11:44:33;25.90;71.80
49579;DHT22;35483;50.828;3.228;2023-06-19T11:47:00;26.00;71.80
49579;DHT22;35483;50.828;3.228;2023-06-19T11:49:26;26.10;71.80
49579;DHT22;35483;50.828;3.228;2023-06-19T11:51:53;26.20;71.80
49579;DHT22;35483;50.828;3.228;2023-06-19T11:54:19;26.40;71.80
49579;DHT22;35483;50.828;3.228;2023-06-19T11:56:46;26.50;71.60
49579;DHT22;35483;50.828;3.228;2023-06-19T11:59:13;26.60;71.60
49579;DHT22;35483;50.828;3.228;2023-06-19T12:01:39;26.80;71.60
49579;DHT22;35483;50.828;3.228;2023-06-19T12:04:06;26.80;71.50
49579;DHT22;35483;50.828;3.228;2023-06-19T12:06:32;26.90;71.40
49579;DHT22;35483;50.828;3.228;2023-06-19T12:08:58;26.90;71.20
49579;DHT22;35483;50.828;3.228;2023-06-19T12:11:23;26.90;71.20
49579;DHT22;35483;50.828;3.228;2023-06-19T12:13:50;27.00;71.10
49579;DHT22;35483;50.828;3.228;2023-06-19T12:16:16;26.80;71.10
49579;DHT22;35483;50.828;3.228;2023-06-19T12:18:42;26.80;71.30
49579;DHT22;35483;50.828;3.228;2023-06-19T12:21:08;26.80;71.40
49579;DHT22;35483;50.828;3.228;2023-06-19T12:23:33;26.70;71.50
49579;DHT22;35483;50.828;3.228;2023-06-19T12:26:00;26.60;71.50
49579;DHT22;35483;50.828;3.228;2023-06-19T12:28:26;26.50;71.40
49579;DHT22;35483;50.828;3.228;2023-06-19T12:30:52;26.50;71.60
49579;DHT22;35483;50.828;3.228;2023-06-19T12:33:19;26.60;71.50
49579;DHT22;35483;50.828;3.228;2023-06-19T12:35:46;26.60;71.20
49579;DHT22;35483;50.828;3.228;2023-06-19T12:38:12;26.70;71.40
49579;DHT22;35483;50.828;3.228;2023-06-19T12:40:38;26.80;71.40
49579;DHT22;35483;50.828;3.228;2023-06-19T12:43:04;27.10;71.20
49579;DHT22;35483;50.828;3.228;2023-06-19T12:45:30;27.20;71.00
49579;DHT22;35483;50.828;3.228;2023-06-19T12:47:56;27.40;70.80
49579;DHT22;35483;50.828;3.228;2023-06-19T12:50:22;27.40;70.80
49579;DHT22;35483;50.828;3.228;2023-06-19T12:52:48;27.40;70.70
49579;DHT22;35483;50.828;3.228;2023-06-19T12:55:14;27.40;70.80
49579;DHT22;35483;50.828;3.228;2023-06-19T12:57:40;27.40;70.70
49579;DHT22;35483;50.828;3.228;2023-06-19T13:00:10;27.50;70.50
49579;DHT22;35483;50.828;3.228;2023-06-19T13:02:37;27.40;70.50
49579;DHT22;35483;50.828;3.228;2023-06-19T13:05:03;27.40;70.60
49579;DHT22;35483;50.828;3.228;2023-06-19T13:07:29;27.30;70.60
49579;DHT22;35483;50.828;3.228;2023-06-19T13:09:55;27.30;70.70
49579;DHT22;35483;50.828;3.228;2023-06-19T13:12:22;27.20;70.70
49579;DHT22;35483;50.828;3.228;2023-06-19T13:14:47;27.10;70.60
49579;DHT22;35483;50.828;3.228;2023-06-19T13:17:13;27.10;70.80
49579;DHT22;35483;50.828;3.228;2023-06-19T13:19:39;27.00;70.70
49579;DHT22;35483;50.828;3.228;2023-06-19T13:22:05;27.00;70.70
49579;DHT22;35483;50.828;3.228;2023-06-19T13:24:31;27.10;70.60
49579;DHT22;35483;50.828;3.228;2023-06-19T13:26:57;27.20;70.40
49579;DHT22;35483;50.828;3.228;2023-06-19T13:29:23;27.20;70.40
49579;DHT22;35483;50.828;3.228;2023-06-19T13:31:49;27.30;70.40
49579;DHT22;35483;50.828;3.228;2023-06-19T13:34:14;27.40;70.40
49579;DHT22;35483;50.828;3.228;2023-06-19T13:36:40;27.60;70.40
49579;DHT22;35483;50.828;3.228;2023-06-19T13:39:06;27.80;70.10
49579;DHT22;35483;50.828;3.228;2023-06-19T13:41:31;27.90;69.80
49579;DHT22;35483;50.828;3.228;2023-06-19T13:43:59;28.00;69.70
49579;DHT22;35483;50.828;3.228;2023-06-19T13:46:25;28.00;69.70
49579;DHT22;35483;50.828;3.228;2023-06-19T13:48:51;28.00;69.70
49579;DHT22;35483;50.828;3.228;2023-06-19T13:51:18;28.00;69.80
49579;DHT22;35483;50.828;3.228;2023-06-19T13:53:43;27.90;69.90
49579;DHT22;35483;50.828;3.228;2023-06-19T13:56:10;28.00;69.90
49579;DHT22;35483;50.828;3.228;2023-06-19T13:58:35;28.00;69.70
49579;DHT22;35483;50.828;3.228;2023-06-19T14:01:01;28.00;69.70
49579;DHT22;35483;50.828;3.228;2023-06-19T14:03:27;27.90;69.60
49579;DHT22;35483;50.828;3.228;2023-06-19T14:05:52;27.90;69.80
49579;DHT22;35483;50.828;3.228;2023-06-19T14:08:19;27.80;70.00
49579;DHT22;35483;50.828;3.228;2023-06-19T14:10:45;27.80;70.00
49579;DHT22;35483;50.828;3.228;2023-06-19T14:13:10;27.70;69.80
49579;DHT22;35483;50.828;3.228;2023-06-19T14:15:36;27.70;69.90
49579;DHT22;35483;50.828;3.228;2023-06-19T14:18:01;27.60;70.00
49579;DHT22;35483;50.828;3.228;2023-06-19T14:20:27;27.50;70.50
49579;DHT22;35483;50.828;3.228;2023-06-19T14:22:54;27.50;70.70
49579;DHT22;35483;50.828;3.228;2023-06-19T14:25:19;27.50;70.10
49579;DHT22;35483;50.828;3.228;2023-06-19T14:27:45;27.50;70.10
49579;DHT22;35483;50.828;3.228;2023-06-19T14:30:11;27.40;70.70
49579;DHT22;35483;50.828;3.228;2023-06-19T14:32:37;27.40;70.10
49579;DHT22;35483;50.828;3.228;2023-06-19T14:35:04;27.50;70.00
49579;DHT22;35483;50.828;3.228;2023-06-19T14:37:29;27.60;69.80
49579;DHT22;35483;50.828;3.228;2023-06-19T14:39:55;27.80;69.80
49579;DHT22;35483;50.828;3.228;2023-06-19T14:42:21;28.00;69.80
49579;DHT22;35483;50.828;3.228;2023-06-19T14:44:47;28.10;69.50
49579;DHT22;35483;50.828;3.228;2023-06-19T14:47:12;28.20;69.60
49579;DHT22;35483;50.828;3.228;2023-06-19T14:49:38;28.40;69.50
49579;DHT22;35483;50.828;3.228;2023-06-19T14:52:04;28.60;69.10
49579;DHT22;35483;50.828;3.228;2023-06-19T14:54:30;28.60;69.20
49579;DHT22;35483;50.828;3.228;2023-06-19T14:56:56;28.80;69.10
49579;DHT22;35483;50.828;3.228;2023-06-19T14:59:22;28.80;69.20
49579;DHT22;35483;50.828;3.228;2023-06-19T15:01:47;28.70;69.20
49579;DHT22;35483;50.828;3.228;2023-06-19T15:04:13;28.70;69.00
49579;DHT22;35483;50.828;3.228;2023-06-19T15:06:39;28.50;69.10
49579;DHT22;35483;50.828;3.228;2023-06-19T15:09:04;28.30;69.20
49579;DHT22;35483;50.828;3.228;2023-06-19T15:11:30;28.20;69.40
49579;DHT22;35483;50.828;3.228;2023-06-19T15:13:56;28.20;69.50
49579;DHT22;35483;50.828;3.228;2023-06-19T15:16:22;28.20;69.50
49579;DHT22;35483;50.828;3.228;2023-06-19T15:18:50;28.20;69.40
49579;DHT22;35483;50.828;3.228;2023-06-19T15:21:16;28.20;69.20
49579;DHT22;35483;50.828;3.228;2023-06-19T15:23:42;28.20;69.40
49579;DHT22;35483;50.828;3.228;2023-06-19T15:26:07;28.20;69.40
49579;DHT22;35483;50.828;3.228;2023-06-19T15:28:33;28.20;69.40
49579;DHT22;35483;50.828;3.228;2023-06-19T15:30:59;28.20;69.40
49579;DHT22;35483;50.828;3.228;2023-06-19T15:33:26;28.20;69.30
49579;DHT22;35483;50.828;3.228;2023-06-19T15:35:51;28.10;69.30